BEL8MN EKCH-EBBR
Flight info
| Callsign | BEL8MN |
|---|---|
| Flight time | 1h 12m |
| Altitude | 36000 |
| Route | NEXEN T503 GIMRU DCT MICOS DCT KEGAB DCT ABAMI Z717 NEREL T855 BATTY |
| Aircraft | A320/M-SDE3FGHIRWY/LB1 |
Departure
| Time | 2026-05-04 19:58 |
|---|---|
| Airport | Copenhagen Kastrup Airport (EKCH) |
Arrival
| Time | 2026-05-04 21:10 |
|---|---|
| Airport | Brussels Airport (EBBR) |
| Time | Latitude | Longitude | Altitude | Speed | Heading |
|---|---|---|---|---|---|
| 2026-05-04 19:26 | 55.62722 | 12.64093 | 24 ft | 0 kts | 33° |
| 2026-05-04 19:36 | 55.62721 | 12.64092 | 24 ft | 0 kts | 33° |
| 2026-05-04 19:43 | 55.62717 | 12.64087 | 25 ft | 4 kts | 33° |
| 2026-05-04 19:44 | 55.62694 | 12.64061 | 25 ft | 4 kts | 33° |
| 2026-05-04 19:44 | 55.62675 | 12.64033 | 29 ft | 4 kts | 66° |
| 2026-05-04 19:44 | 55.62675 | 12.64001 | 27 ft | 1 kts | 123° |
| 2026-05-04 19:44 | 55.62678 | 12.63991 | 26 ft | 0 kts | 123° |
| 2026-05-04 19:50 | 55.62674 | 12.64004 | 27 ft | 6 kts | 123° |
| 2026-05-04 19:50 | 55.62648 | 12.64074 | 24 ft | 11 kts | 123° |
| 2026-05-04 19:50 | 55.62615 | 12.64163 | 24 ft | 0 kts | 123° |
| 2026-05-04 19:50 | 55.62591 | 12.64227 | 24 ft | 15 kts | 124° |
| 2026-05-04 19:51 | 55.62535 | 12.64378 | 24 ft | 14 kts | 122° |
| 2026-05-04 19:51 | 55.62518 | 12.64424 | 24 ft | 1 kts | 122° |
| 2026-05-04 19:51 | 55.62484 | 12.64477 | 24 ft | 8 kts | 160° |
| 2026-05-04 19:51 | 55.62433 | 12.64467 | 24 ft | 6 kts | 194° |
| 2026-05-04 19:52 | 55.62410 | 12.64457 | 24 ft | 0 kts | 194° |
| 2026-05-04 19:53 | 55.62375 | 12.64441 | 24 ft | 8 kts | 194° |
| 2026-05-04 19:53 | 55.62327 | 12.64418 | 26 ft | 7 kts | 195° |
| 2026-05-04 19:54 | 55.62280 | 12.64395 | 22 ft | 10 kts | 195° |
| 2026-05-04 19:54 | 55.62179 | 12.64326 | 22 ft | 16 kts | 205° |
| 2026-05-04 19:54 | 55.62082 | 12.64245 | 24 ft | 15 kts | 205° |
| 2026-05-04 19:54 | 55.61993 | 12.64170 | 24 ft | 13 kts | 205° |
| 2026-05-04 19:55 | 55.61915 | 12.64106 | 25 ft | 12 kts | 205° |
| 2026-05-04 19:55 | 55.61851 | 12.64037 | 24 ft | 10 kts | 218° |
| 2026-05-04 19:55 | 55.61804 | 12.63967 | 24 ft | 8 kts | 217° |
| 2026-05-04 19:55 | 55.61739 | 12.63940 | 24 ft | 14 kts | 178° |
| 2026-05-04 19:56 | 55.61658 | 12.63948 | 27 ft | 5 kts | 176° |
| 2026-05-04 19:56 | 55.61618 | 12.63952 | 26 ft | 10 kts | 177° |
| 2026-05-04 19:56 | 55.61543 | 12.63936 | 28 ft | 10 kts | 208° |
| 2026-05-04 19:56 | 55.61510 | 12.63890 | 29 ft | 0 kts | 222° |
| 2026-05-04 19:57 | 55.61502 | 12.63878 | 28 ft | 14 kts | 222° |
| 2026-05-04 19:57 | 55.61220 | 12.63441 | 27 ft | 89 kts | 221° |
| 2026-05-04 19:57 | 55.60603 | 12.62485 | 27 ft | 145 kts | 221° |
| 2026-05-04 19:58 | 55.59742 | 12.61161 | 223 ft | 173 kts | 221° |
| 2026-05-04 19:58 | 55.58823 | 12.59752 | 912 ft | 176 kts | 223° |
| 2026-05-04 19:58 | 55.57892 | 12.58327 | 1645 ft | 178 kts | 224° |
| 2026-05-04 19:58 | 55.56918 | 12.56847 | 2125 ft | 194 kts | 223° |
| 2026-05-04 19:59 | 55.55795 | 12.55340 | 2510 ft | 213 kts | 218° |
| 2026-05-04 19:59 | 55.54511 | 12.53747 | 2834 ft | 238 kts | 217° |
| 2026-05-04 19:59 | 55.53088 | 12.52016 | 3414 ft | 255 kts | 217° |
| 2026-05-04 19:59 | 55.51611 | 12.50230 | 4334 ft | 259 kts | 217° |
| 2026-05-04 20:00 | 55.50124 | 12.48430 | 5310 ft | 260 kts | 217° |
| 2026-05-04 20:00 | 55.48634 | 12.46618 | 6277 ft | 261 kts | 218° |
| 2026-05-04 20:00 | 55.47138 | 12.44795 | 7166 ft | 263 kts | 218° |
| 2026-05-04 20:00 | 55.45624 | 12.42950 | 8032 ft | 266 kts | 218° |
| 2026-05-04 20:01 | 55.44093 | 12.41085 | 8886 ft | 270 kts | 218° |
| 2026-05-04 20:01 | 55.42543 | 12.39199 | 9753 ft | 273 kts | 218° |
| 2026-05-04 20:01 | 55.40957 | 12.37264 | 10331 ft | 286 kts | 218° |
| 2026-05-04 20:01 | 55.39259 | 12.35188 | 10572 ft | 309 kts | 218° |
| 2026-05-04 20:02 | 55.37442 | 12.32969 | 11006 ft | 323 kts | 218° |
| 2026-05-04 20:02 | 55.35580 | 12.30702 | 11717 ft | 328 kts | 218° |
| 2026-05-04 20:02 | 55.33695 | 12.28416 | 12487 ft | 331 kts | 218° |
| 2026-05-04 20:02 | 55.31791 | 12.26116 | 13254 ft | 333 kts | 218° |
| 2026-05-04 20:03 | 55.29874 | 12.23805 | 13995 ft | 336 kts | 218° |
| 2026-05-04 20:03 | 55.27938 | 12.21473 | 14650 ft | 339 kts | 218° |
| 2026-05-04 20:03 | 55.25980 | 12.19115 | 15267 ft | 343 kts | 218° |
| 2026-05-04 20:03 | 55.24001 | 12.16730 | 15889 ft | 347 kts | 218° |
| 2026-05-04 20:04 | 55.22004 | 12.14321 | 16507 ft | 351 kts | 218° |
| 2026-05-04 20:04 | 55.19985 | 12.11887 | 17123 ft | 354 kts | 218° |
| 2026-05-04 20:04 | 55.17964 | 12.09381 | 17720 ft | 357 kts | 219° |
| 2026-05-04 20:04 | 55.15948 | 12.06804 | 18324 ft | 360 kts | 219° |
| 2026-05-04 20:05 | 55.13925 | 12.04183 | 18868 ft | 363 kts | 219° |
| 2026-05-04 20:05 | 55.11888 | 12.01540 | 19426 ft | 366 kts | 219° |
| 2026-05-04 20:05 | 55.09832 | 11.98888 | 19990 ft | 369 kts | 219° |
| 2026-05-04 20:05 | 55.07758 | 11.96227 | 20571 ft | 371 kts | 219° |
| 2026-05-04 20:06 | 55.05669 | 11.93554 | 21130 ft | 374 kts | 219° |
| 2026-05-04 20:06 | 55.03564 | 11.90869 | 21686 ft | 376 kts | 219° |
| 2026-05-04 20:06 | 55.01439 | 11.88171 | 22227 ft | 379 kts | 219° |
| 2026-05-04 20:06 | 54.99299 | 11.85465 | 22757 ft | 382 kts | 219° |
| 2026-05-04 20:07 | 54.97139 | 11.82741 | 23273 ft | 384 kts | 219° |
| 2026-05-04 20:07 | 54.94970 | 11.80002 | 23711 ft | 387 kts | 219° |
| 2026-05-04 20:07 | 54.92795 | 11.77258 | 24229 ft | 385 kts | 220° |
| 2026-05-04 20:07 | 54.90626 | 11.74525 | 24726 ft | 385 kts | 220° |
| 2026-05-04 20:08 | 54.88462 | 11.71799 | 25166 ft | 385 kts | 220° |
| 2026-05-04 20:08 | 54.86291 | 11.69069 | 25590 ft | 386 kts | 220° |
| 2026-05-04 20:08 | 54.84116 | 11.66338 | 26011 ft | 386 kts | 220° |
| 2026-05-04 20:08 | 54.81938 | 11.63608 | 26426 ft | 387 kts | 220° |
| 2026-05-04 20:09 | 54.80491 | 11.61797 | 26703 ft | 388 kts | 220° |
| 2026-05-04 20:09 | 54.78301 | 11.59061 | 27094 ft | 388 kts | 221° |
| 2026-05-04 20:09 | 54.76103 | 11.56320 | 27479 ft | 389 kts | 221° |
| 2026-05-04 20:09 | 54.73904 | 11.53582 | 27867 ft | 390 kts | 221° |
| 2026-05-04 20:10 | 54.71696 | 11.50835 | 28223 ft | 391 kts | 220° |
| 2026-05-04 20:10 | 54.69483 | 11.48083 | 28544 ft | 393 kts | 220° |
| 2026-05-04 20:10 | 54.67260 | 11.45314 | 28866 ft | 395 kts | 220° |
| 2026-05-04 20:10 | 54.65029 | 11.42534 | 29194 ft | 396 kts | 220° |
| 2026-05-04 20:11 | 54.62787 | 11.39752 | 29506 ft | 398 kts | 220° |
| 2026-05-04 20:11 | 54.60531 | 11.36968 | 29804 ft | 399 kts | 220° |
| 2026-05-04 20:11 | 54.58272 | 11.34191 | 30121 ft | 399 kts | 220° |
| 2026-05-04 20:11 | 54.56008 | 11.31403 | 30364 ft | 401 kts | 220° |
| 2026-05-04 20:12 | 54.53733 | 11.28602 | 30564 ft | 403 kts | 220° |
| 2026-05-04 20:12 | 54.51448 | 11.25807 | 30769 ft | 404 kts | 220° |
| 2026-05-04 20:12 | 54.49152 | 11.23011 | 31037 ft | 404 kts | 220° |
| 2026-05-04 20:12 | 54.46851 | 11.20217 | 31227 ft | 406 kts | 219° |
| 2026-05-04 20:13 | 54.44539 | 11.17416 | 31454 ft | 407 kts | 219° |
| 2026-05-04 20:13 | 54.42220 | 11.14612 | 31709 ft | 408 kts | 219° |
| 2026-05-04 20:13 | 54.39902 | 11.11809 | 31974 ft | 408 kts | 219° |
| 2026-05-04 20:13 | 54.37581 | 11.09001 | 32242 ft | 408 kts | 219° |
| 2026-05-04 20:14 | 54.35258 | 11.06202 | 32507 ft | 409 kts | 219° |
| 2026-05-04 20:14 | 54.32928 | 11.03402 | 32775 ft | 409 kts | 219° |
| 2026-05-04 20:14 | 54.30603 | 11.00608 | 33038 ft | 409 kts | 219° |
| 2026-05-04 20:14 | 54.28264 | 10.97811 | 33309 ft | 410 kts | 219° |
| 2026-05-04 20:15 | 54.25922 | 10.95033 | 33573 ft | 410 kts | 219° |
| 2026-05-04 20:15 | 54.23576 | 10.92263 | 33800 ft | 410 kts | 219° |
| 2026-05-04 20:15 | 54.21224 | 10.89490 | 34051 ft | 411 kts | 219° |
| 2026-05-04 20:15 | 54.18872 | 10.86719 | 34275 ft | 411 kts | 219° |
| 2026-05-04 20:16 | 54.16514 | 10.83947 | 34498 ft | 412 kts | 219° |
| 2026-05-04 20:16 | 54.14155 | 10.81177 | 34704 ft | 412 kts | 219° |
| 2026-05-04 20:16 | 54.11788 | 10.78398 | 34916 ft | 413 kts | 219° |
| 2026-05-04 20:16 | 54.09425 | 10.75627 | 35106 ft | 413 kts | 218° |
| 2026-05-04 20:17 | 54.07050 | 10.72844 | 35313 ft | 414 kts | 218° |
| 2026-05-04 20:17 | 54.04676 | 10.70070 | 35490 ft | 415 kts | 218° |
| 2026-05-04 20:17 | 54.02294 | 10.67296 | 35677 ft | 415 kts | 218° |
| 2026-05-04 20:17 | 53.99908 | 10.64520 | 35849 ft | 416 kts | 218° |
| 2026-05-04 20:18 | 53.97519 | 10.61738 | 35970 ft | 417 kts | 218° |
| 2026-05-04 20:18 | 53.92731 | 10.56173 | 35998 ft | 417 kts | 218° |
| 2026-05-04 20:19 | 53.87941 | 10.50634 | 36002 ft | 417 kts | 218° |
| 2026-05-04 20:19 | 53.83151 | 10.45099 | 35998 ft | 417 kts | 218° |
| 2026-05-04 20:20 | 53.78356 | 10.39575 | 35976 ft | 417 kts | 217° |
| 2026-05-04 20:20 | 53.73554 | 10.34057 | 35989 ft | 418 kts | 217° |
| 2026-05-04 20:21 | 53.68744 | 10.28544 | 35992 ft | 418 kts | 217° |
| 2026-05-04 20:21 | 53.61527 | 10.20299 | 36005 ft | 418 kts | 217° |
| 2026-05-04 20:22 | 53.56707 | 10.14830 | 36007 ft | 418 kts | 217° |
| 2026-05-04 20:22 | 53.51899 | 10.09384 | 36011 ft | 416 kts | 217° |
| 2026-05-04 20:23 | 53.47110 | 10.03968 | 36017 ft | 414 kts | 217° |
| 2026-05-04 20:23 | 53.42331 | 9.98582 | 35999 ft | 413 kts | 217° |
| 2026-05-04 20:24 | 53.37556 | 9.93216 | 36002 ft | 413 kts | 217° |
| 2026-05-04 20:24 | 53.32786 | 9.87855 | 35988 ft | 413 kts | 216° |
| 2026-05-04 20:25 | 53.28029 | 9.82524 | 35994 ft | 411 kts | 216° |
| 2026-05-04 20:25 | 53.23273 | 9.77225 | 35998 ft | 410 kts | 216° |
| 2026-05-04 20:26 | 53.18525 | 9.71951 | 35996 ft | 410 kts | 216° |
| 2026-05-04 20:26 | 53.13781 | 9.66686 | 35996 ft | 409 kts | 216° |
| 2026-05-04 20:27 | 53.09041 | 9.61443 | 35996 ft | 409 kts | 216° |
| 2026-05-04 20:27 | 53.04298 | 9.56215 | 35999 ft | 409 kts | 216° |
| 2026-05-04 20:28 | 52.99556 | 9.50996 | 35993 ft | 409 kts | 216° |
| 2026-05-04 20:28 | 52.94817 | 9.45794 | 35990 ft | 408 kts | 216° |
| 2026-05-04 20:29 | 52.90271 | 9.40215 | 35987 ft | 405 kts | 224° |
| 2026-05-04 20:29 | 52.86098 | 9.33935 | 35970 ft | 405 kts | 224° |
| 2026-05-04 20:30 | 52.81923 | 9.27675 | 35978 ft | 405 kts | 224° |
| 2026-05-04 20:30 | 52.77750 | 9.21438 | 35977 ft | 404 kts | 224° |
| 2026-05-04 20:31 | 52.73574 | 9.15225 | 35978 ft | 404 kts | 224° |
| 2026-05-04 20:31 | 52.69391 | 9.09021 | 35976 ft | 404 kts | 224° |
| 2026-05-04 20:32 | 52.65212 | 9.02831 | 35977 ft | 404 kts | 223° |
| 2026-05-04 20:32 | 52.61060 | 8.96695 | 35972 ft | 404 kts | 223° |
| 2026-05-04 20:33 | 52.56879 | 8.90532 | 35978 ft | 404 kts | 223° |
| 2026-05-04 20:33 | 52.52696 | 8.84385 | 35975 ft | 404 kts | 223° |
| 2026-05-04 20:34 | 52.48507 | 8.78247 | 35977 ft | 404 kts | 223° |
| 2026-05-04 20:34 | 52.44315 | 8.72116 | 35953 ft | 405 kts | 223° |
| 2026-05-04 20:35 | 52.40110 | 8.65968 | 35948 ft | 406 kts | 223° |
| 2026-05-04 20:35 | 52.35889 | 8.59824 | 35950 ft | 406 kts | 223° |
| 2026-05-04 20:36 | 52.31657 | 8.53690 | 35959 ft | 407 kts | 223° |
| 2026-05-04 20:36 | 52.27414 | 8.47565 | 35959 ft | 407 kts | 223° |
| 2026-05-04 20:37 | 52.23171 | 8.41440 | 35962 ft | 407 kts | 223° |
| 2026-05-04 20:37 | 52.18919 | 8.35316 | 35963 ft | 408 kts | 222° |
| 2026-05-04 20:38 | 52.14666 | 8.29201 | 35966 ft | 408 kts | 222° |
| 2026-05-04 20:38 | 52.10404 | 8.23100 | 35972 ft | 408 kts | 222° |
| 2026-05-04 20:39 | 52.06135 | 8.17011 | 35978 ft | 408 kts | 222° |
| 2026-05-04 20:39 | 52.01887 | 8.10971 | 35973 ft | 408 kts | 222° |
| 2026-05-04 20:40 | 51.97613 | 8.04897 | 35968 ft | 408 kts | 222° |
| 2026-05-04 20:40 | 51.93335 | 7.98840 | 35974 ft | 408 kts | 221° |
| 2026-05-04 20:41 | 51.89046 | 7.92802 | 35978 ft | 408 kts | 221° |
| 2026-05-04 20:41 | 51.84757 | 7.86768 | 35981 ft | 409 kts | 221° |
| 2026-05-04 20:42 | 51.80474 | 7.80741 | 35988 ft | 409 kts | 221° |
| 2026-05-04 20:42 | 51.76179 | 7.74721 | 35986 ft | 409 kts | 221° |
| 2026-05-04 20:43 | 51.71878 | 7.68702 | 35989 ft | 409 kts | 221° |
| 2026-05-04 20:43 | 51.67568 | 7.62687 | 35988 ft | 410 kts | 221° |
| 2026-05-04 20:44 | 51.63254 | 7.56691 | 35987 ft | 410 kts | 221° |
| 2026-05-04 20:44 | 51.58931 | 7.50704 | 35988 ft | 410 kts | 221° |
| 2026-05-04 20:45 | 51.54607 | 7.44720 | 35998 ft | 410 kts | 220° |
| 2026-05-04 20:45 | 51.50279 | 7.38747 | 35998 ft | 410 kts | 220° |
| 2026-05-04 20:46 | 51.45946 | 7.32785 | 35998 ft | 410 kts | 220° |
| 2026-05-04 20:46 | 51.41802 | 7.26527 | 35994 ft | 411 kts | 230° |
| 2026-05-04 20:47 | 51.38375 | 7.19196 | 36006 ft | 411 kts | 232° |
| 2026-05-04 20:47 | 51.34956 | 7.11850 | 35992 ft | 412 kts | 232° |
| 2026-05-04 20:48 | 51.31526 | 7.04522 | 35994 ft | 412 kts | 232° |
| 2026-05-04 20:48 | 51.28079 | 6.97174 | 35998 ft | 413 kts | 232° |
| 2026-05-04 20:49 | 51.24631 | 6.89834 | 36005 ft | 413 kts | 232° |
| 2026-05-04 20:49 | 51.21170 | 6.82503 | 35702 ft | 413 kts | 232° |
| 2026-05-04 20:50 | 51.19446 | 6.78856 | 35450 ft | 412 kts | 232° |
| 2026-05-04 20:50 | 51.17725 | 6.75211 | 35199 ft | 411 kts | 232° |
| 2026-05-04 20:50 | 51.16009 | 6.71580 | 34950 ft | 410 kts | 231° |
| 2026-05-04 20:50 | 51.14293 | 6.67961 | 34696 ft | 409 kts | 231° |
| 2026-05-04 20:51 | 51.12577 | 6.64356 | 34468 ft | 408 kts | 231° |
| 2026-05-04 20:51 | 51.10863 | 6.60760 | 34226 ft | 408 kts | 231° |
| 2026-05-04 20:51 | 51.09142 | 6.57174 | 33541 ft | 408 kts | 229° |
| 2026-05-04 20:51 | 51.07210 | 6.53867 | 32566 ft | 408 kts | 223° |
| 2026-05-04 20:52 | 51.05194 | 6.50674 | 31632 ft | 410 kts | 223° |
| 2026-05-04 20:52 | 51.03171 | 6.47477 | 30663 ft | 411 kts | 223° |
| 2026-05-04 20:52 | 51.01132 | 6.44256 | 29566 ft | 415 kts | 223° |
| 2026-05-04 20:52 | 50.99106 | 6.41059 | 28487 ft | 417 kts | 223° |
| 2026-05-04 20:53 | 50.97048 | 6.37818 | 27405 ft | 418 kts | 223° |
| 2026-05-04 20:53 | 50.94971 | 6.34557 | 26439 ft | 419 kts | 223° |
| 2026-05-04 20:53 | 50.92924 | 6.31345 | 25814 ft | 412 kts | 223° |
| 2026-05-04 20:53 | 50.90894 | 6.28161 | 25097 ft | 409 kts | 223° |
| 2026-05-04 20:54 | 50.88877 | 6.24999 | 24394 ft | 406 kts | 223° |
| 2026-05-04 20:54 | 50.86873 | 6.21861 | 23701 ft | 405 kts | 223° |
| 2026-05-04 20:54 | 50.84875 | 6.18734 | 22951 ft | 403 kts | 223° |
| 2026-05-04 20:54 | 50.83535 | 6.16636 | 22515 ft | 400 kts | 223° |
| 2026-05-04 20:55 | 50.81569 | 6.13562 | 21873 ft | 396 kts | 223° |
| 2026-05-04 20:55 | 50.79619 | 6.10520 | 21261 ft | 392 kts | 223° |
| 2026-05-04 20:55 | 50.77680 | 6.07508 | 20664 ft | 390 kts | 223° |
| 2026-05-04 20:55 | 50.75752 | 6.04516 | 20079 ft | 387 kts | 224° |
| 2026-05-04 20:56 | 50.73871 | 6.01487 | 19498 ft | 386 kts | 226° |
| 2026-05-04 20:56 | 50.72079 | 5.98339 | 18923 ft | 385 kts | 228° |
| 2026-05-04 20:56 | 50.70355 | 5.95139 | 18378 ft | 383 kts | 229° |
| 2026-05-04 20:56 | 50.68766 | 5.91775 | 17774 ft | 381 kts | 239° |
| 2026-05-04 20:57 | 50.67704 | 5.87976 | 17262 ft | 379 kts | 251° |
| 2026-05-04 20:57 | 50.67189 | 5.83924 | 16735 ft | 377 kts | 264° |
| 2026-05-04 20:57 | 50.67246 | 5.79811 | 16240 ft | 375 kts | 276° |
| 2026-05-04 20:57 | 50.67890 | 5.75845 | 15727 ft | 375 kts | 290° |
| 2026-05-04 20:58 | 50.69000 | 5.72202 | 15214 ft | 373 kts | 296° |
| 2026-05-04 20:58 | 50.70193 | 5.68512 | 14671 ft | 371 kts | 296° |
| 2026-05-04 20:58 | 50.71359 | 5.64886 | 14126 ft | 370 kts | 296° |
| 2026-05-04 20:58 | 50.72517 | 5.61270 | 13535 ft | 369 kts | 296° |
| 2026-05-04 20:59 | 50.73656 | 5.57704 | 12954 ft | 367 kts | 297° |
| 2026-05-04 20:59 | 50.74817 | 5.54063 | 12348 ft | 366 kts | 298° |
| 2026-05-04 20:59 | 50.75955 | 5.50488 | 11757 ft | 363 kts | 298° |
| 2026-05-04 20:59 | 50.77088 | 5.46926 | 11144 ft | 362 kts | 298° |
| 2026-05-04 21:00 | 50.78206 | 5.43406 | 10801 ft | 352 kts | 298° |
| 2026-05-04 21:00 | 50.79278 | 5.40019 | 10675 ft | 337 kts | 298° |
| 2026-05-04 21:00 | 50.80302 | 5.36777 | 10554 ft | 323 kts | 298° |
| 2026-05-04 21:00 | 50.81288 | 5.33661 | 10419 ft | 311 kts | 298° |
| 2026-05-04 21:01 | 50.82237 | 5.30659 | 10303 ft | 299 kts | 298° |
| 2026-05-04 21:01 | 50.83156 | 5.27748 | 10052 ft | 293 kts | 298° |
| 2026-05-04 21:01 | 50.84057 | 5.24889 | 9864 ft | 289 kts | 298° |
| 2026-05-04 21:01 | 50.84956 | 5.22035 | 9727 ft | 289 kts | 298° |
| 2026-05-04 21:02 | 50.85859 | 5.19182 | 9403 ft | 290 kts | 298° |
| 2026-05-04 21:02 | 50.86760 | 5.16329 | 8901 ft | 287 kts | 297° |
| 2026-05-04 21:02 | 50.87652 | 5.13533 | 8431 ft | 283 kts | 301° |
| 2026-05-04 21:02 | 50.88696 | 5.10913 | 7964 ft | 281 kts | 304° |
| 2026-05-04 21:03 | 50.89744 | 5.08316 | 7500 ft | 280 kts | 304° |
| 2026-05-04 21:03 | 50.90793 | 5.05707 | 7027 ft | 281 kts | 303° |
| 2026-05-04 21:03 | 50.91830 | 5.03110 | 6569 ft | 276 kts | 303° |
| 2026-05-04 21:03 | 50.92850 | 5.00557 | 6083 ft | 274 kts | 303° |
| 2026-05-04 21:04 | 50.93872 | 4.98005 | 5618 ft | 274 kts | 303° |
| 2026-05-04 21:04 | 50.94893 | 4.95460 | 5175 ft | 273 kts | 303° |
| 2026-05-04 21:04 | 50.95893 | 4.92959 | 4974 ft | 262 kts | 303° |
| 2026-05-04 21:04 | 50.96844 | 4.90577 | 4847 ft | 250 kts | 303° |
| 2026-05-04 21:05 | 50.97502 | 4.88108 | 4720 ft | 240 kts | 281° |
| 2026-05-04 21:05 | 50.97456 | 4.85487 | 4494 ft | 238 kts | 255° |
| 2026-05-04 21:05 | 50.96929 | 4.83053 | 4202 ft | 236 kts | 251° |
| 2026-05-04 21:05 | 50.96370 | 4.80632 | 3880 ft | 229 kts | 251° |
| 2026-05-04 21:06 | 50.95830 | 4.78268 | 3587 ft | 228 kts | 251° |
| 2026-05-04 21:06 | 50.95294 | 4.75913 | 3280 ft | 225 kts | 251° |
| 2026-05-04 21:06 | 50.94773 | 4.73628 | 2989 ft | 217 kts | 251° |
| 2026-05-04 21:06 | 50.94263 | 4.71394 | 2699 ft | 212 kts | 251° |
| 2026-05-04 21:07 | 50.93772 | 4.69241 | 2445 ft | 202 kts | 252° |
| 2026-05-04 21:07 | 50.93300 | 4.67181 | 2162 ft | 190 kts | 252° |
| 2026-05-04 21:07 | 50.92860 | 4.65261 | 1894 ft | 180 kts | 252° |
| 2026-05-04 21:07 | 50.92451 | 4.63475 | 1696 ft | 165 kts | 252° |
| 2026-05-04 21:08 | 50.92072 | 4.61822 | 1454 ft | 155 kts | 253° |
| 2026-05-04 21:08 | 50.91711 | 4.60246 | 1249 ft | 149 kts | 253° |
| 2026-05-04 21:08 | 50.91365 | 4.58728 | 1015 ft | 147 kts | 253° |
| 2026-05-04 21:08 | 50.91024 | 4.57224 | 830 ft | 144 kts | 252° |
| 2026-05-04 21:09 | 50.90686 | 4.55753 | 662 ft | 140 kts | 251° |
| 2026-05-04 21:09 | 50.90350 | 4.54314 | 468 ft | 138 kts | 251° |
| 2026-05-04 21:09 | 50.90024 | 4.52895 | 296 ft | 136 kts | 251° |
| 2026-05-04 21:09 | 50.89707 | 4.51515 | 174 ft | 122 kts | 250° |
| 2026-05-04 21:10 | 50.89473 | 4.50500 | 175 ft | 73 kts | 250° |
| 2026-05-04 21:10 | 50.89345 | 4.49944 | 177 ft | 27 kts | 252° |
| 2026-05-04 21:10 | 50.89354 | 4.49713 | 175 ft | 20 kts | 296° |
| 2026-05-04 21:10 | 50.89450 | 4.49505 | 166 ft | 26 kts | 306° |
| 2026-05-04 21:11 | 50.89534 | 4.49328 | 161 ft | 19 kts | 307° |
| 2026-05-04 21:11 | 50.89607 | 4.49173 | 155 ft | 11 kts | 313° |
| 2026-05-04 21:11 | 50.89693 | 4.49165 | 149 ft | 16 kts | 14° |
| 2026-05-04 21:11 | 50.89812 | 4.49213 | 143 ft | 16 kts | 14° |
| 2026-05-04 21:12 | 50.89928 | 4.49260 | 136 ft | 18 kts | 14° |
| 2026-05-04 21:12 | 50.90042 | 4.49308 | 128 ft | 11 kts | 15° |
| 2026-05-04 21:12 | 50.90117 | 4.49338 | 131 ft | 12 kts | 14° |
| 2026-05-04 21:12 | 50.90209 | 4.49376 | 128 ft | 15 kts | 14° |
| 2026-05-04 21:13 | 50.90296 | 4.49405 | 124 ft | 11 kts | 356° |
| 2026-05-04 21:13 | 50.90359 | 4.49347 | 125 ft | 10 kts | 329° |
| 2026-05-04 21:13 | 50.90426 | 4.49295 | 121 ft | 11 kts | 336° |
| 2026-05-04 21:13 | 50.90497 | 4.49244 | 120 ft | 10 kts | 335° |
| 2026-05-04 21:14 | 50.90550 | 4.49204 | 124 ft | 8 kts | 335° |
| 2026-05-04 21:14 | 50.90605 | 4.49165 | 121 ft | 11 kts | 336° |
| 2026-05-04 21:14 | 50.90646 | 4.49086 | 120 ft | 9 kts | 268° |
| 2026-05-04 21:14 | 50.90614 | 4.48967 | 119 ft | 13 kts | 245° |
| 2026-05-04 21:15 | 50.90574 | 4.48830 | 119 ft | 15 kts | 245° |
| 2026-05-04 21:15 | 50.90533 | 4.48686 | 120 ft | 11 kts | 245° |
| 2026-05-04 21:15 | 50.90499 | 4.48570 | 117 ft | 13 kts | 245° |
| 2026-05-04 21:15 | 50.90460 | 4.48433 | 120 ft | 15 kts | 245° |
| 2026-05-04 21:16 | 50.90426 | 4.48333 | 119 ft | 8 kts | 219° |
| 2026-05-04 21:16 | 50.90375 | 4.48348 | 120 ft | 4 kts | 155° |
| 2026-05-04 21:16 | 50.90353 | 4.48364 | 119 ft | 2 kts | 155° |
| 2026-05-04 21:16 | 50.90345 | 4.48370 | 120 ft | 0 kts | 155° |
| 2026-05-04 21:17 | 50.90342 | 4.48372 | 120 ft | 1 kts | 155° |
| 2026-05-04 21:17 | 50.90339 | 4.48374 | 120 ft | 0 kts | 155° |